Terminal Aerodrome Forecast
Issued by NWS Sterling, VA

Current Version | Previous Version | Graphics & Text | Print | Product List | Glossary On
Versions: 1 2 3 4 5 6 7 8 9 10 11 12 13 14 15 16 17 18 19 20 21 22 23 24 25 26 27 28 29 30 31 32 33 34
000
FTUS41 KLWX 261730
TAFIAD
TAF
KIAD 261730Z 2618/2724 20009KT P6SM VCTS SCT050CB BKN090
     FM270100 18005KT P6SM VCTS SCT050CB BKN060
     FM270200 17005KT P6SM SCT050 BKN100
     FM271500 25004KT P6SM BKN070
     FM271700 17004KT P6SM BKN050
     FM272200 12005KT P6SM SCT060=

USA.gov is the U.S. government's official web portal to all federal, state and local government web resources and services.